sensor_id;sensor_type;location;lat;lon;timestamp;temperature;humidity
31527;DHT22;18136;42.236;-73.040;2023-07-30T00:02:06;19.20;99.90
31527;DHT22;18136;42.236;-73.040;2023-07-30T00:04:32;19.10;99.90
31527;DHT22;18136;42.236;-73.040;2023-07-30T00:06:59;19.10;99.90
31527;DHT22;18136;42.236;-73.040;2023-07-30T00:09:26;19.00;99.90
31527;DHT22;18136;42.236;-73.040;2023-07-30T00:11:52;19.00;99.90
31527;DHT22;18136;42.236;-73.040;2023-07-30T00:14:18;19.00;99.90
31527;DHT22;18136;42.236;-73.040;2023-07-30T00:16:45;18.90;99.90
31527;DHT22;18136;42.236;-73.040;2023-07-30T00:19:11;18.90;99.90
31527;DHT22;18136;42.236;-73.040;2023-07-30T00:21:37;18.90;99.90
31527;DHT22;18136;42.236;-73.040;2023-07-30T00:24:03;18.80;99.90
31527;DHT22;18136;42.236;-73.040;2023-07-30T00:26:29;18.70;99.90
31527;DHT22;18136;42.236;-73.040;2023-07-30T00:28:55;18.70;99.90
31527;DHT22;18136;42.236;-73.040;2023-07-30T00:31:21;18.50;99.90
31527;DHT22;18136;42.236;-73.040;2023-07-30T00:33:47;18.50;99.90
31527;DHT22;18136;42.236;-73.040;2023-07-30T00:36:13;18.50;99.90
31527;DHT22;18136;42.236;-73.040;2023-07-30T00:38:40;18.50;99.90
31527;DHT22;18136;42.236;-73.040;2023-07-30T00:41:06;18.50;99.90
31527;DHT22;18136;42.236;-73.040;2023-07-30T00:43:33;18.40;99.90
31527;DHT22;18136;42.236;-73.040;2023-07-30T00:45:59;18.30;99.90
31527;DHT22;18136;42.236;-73.040;2023-07-30T00:48:26;18.30;99.90
31527;DHT22;18136;42.236;-73.040;2023-07-30T00:50:53;18.30;99.90
31527;DHT22;18136;42.236;-73.040;2023-07-30T00:53:21;18.30;99.90
31527;DHT22;18136;42.236;-73.040;2023-07-30T00:55:48;18.30;99.90
31527;DHT22;18136;42.236;-73.040;2023-07-30T00:58:15;18.20;99.90
31527;DHT22;18136;42.236;-73.040;2023-07-30T01:00:42;18.20;99.90
31527;DHT22;18136;42.236;-73.040;2023-07-30T01:03:09;18.20;99.90
31527;DHT22;18136;42.236;-73.040;2023-07-30T01:05:35;18.10;99.90
31527;DHT22;18136;42.236;-73.040;2023-07-30T01:08:01;18.10;99.90
31527;DHT22;18136;42.236;-73.040;2023-07-30T01:10:31;18.10;99.90
31527;DHT22;18136;42.236;-73.040;2023-07-30T01:13:02;18.10;99.90
31527;DHT22;18136;42.236;-73.040;2023-07-30T01:15:29;18.10;99.90
31527;DHT22;18136;42.236;-73.040;2023-07-30T01:17:56;18.00;99.90
31527;DHT22;18136;42.236;-73.040;2023-07-30T01:20:22;18.00;99.90
31527;DHT22;18136;42.236;-73.040;2023-07-30T01:22:48;17.90;99.90
31527;DHT22;18136;42.236;-73.040;2023-07-30T01:25:15;18.00;99.90
31527;DHT22;18136;42.236;-73.040;2023-07-30T01:27:47;17.90;99.90
31527;DHT22;18136;42.236;-73.040;2023-07-30T01:30:27;17.90;99.90
31527;DHT22;18136;42.236;-73.040;2023-07-30T01:32:55;17.90;99.90
31527;DHT22;18136;42.236;-73.040;2023-07-30T01:35:26;17.90;99.90
31527;DHT22;18136;42.236;-73.040;2023-07-30T01:37:56;17.80;99.90
31527;DHT22;18136;42.236;-73.040;2023-07-30T01:40:23;17.80;99.90
31527;DHT22;18136;42.236;-73.040;2023-07-30T01:42:52;17.80;99.90
31527;DHT22;18136;42.236;-73.040;2023-07-30T01:45:18;17.70;99.90
31527;DHT22;18136;42.236;-73.040;2023-07-30T01:47:44;17.70;99.90
31527;DHT22;18136;42.236;-73.040;2023-07-30T01:50:10;17.70;99.90
31527;DHT22;18136;42.236;-73.040;2023-07-30T01:52:37;17.70;99.90
31527;DHT22;18136;42.236;-73.040;2023-07-30T01:55:03;17.60;99.90
31527;DHT22;18136;42.236;-73.040;2023-07-30T01:57:29;17.60;99.90
31527;DHT22;18136;42.236;-73.040;2023-07-30T01:59:55;17.60;99.90
31527;DHT22;18136;42.236;-73.040;2023-07-30T02:02:21;17.60;99.90
31527;DHT22;18136;42.236;-73.040;2023-07-30T02:04:47;17.50;99.90
31527;DHT22;18136;42.236;-73.040;2023-07-30T02:07:13;17.60;99.90
31527;DHT22;18136;42.236;-73.040;2023-07-30T02:09:39;17.50;99.90
31527;DHT22;18136;42.236;-73.040;2023-07-30T02:12:06;17.50;99.90
31527;DHT22;18136;42.236;-73.040;2023-07-30T02:14:38;17.40;99.90
31527;DHT22;18136;42.236;-73.040;2023-07-30T02:17:04;17.40;99.90
31527;DHT22;18136;42.236;-73.040;2023-07-30T02:19:30;17.40;99.90
31527;DHT22;18136;42.236;-73.040;2023-07-30T02:21:56;17.40;99.90
31527;DHT22;18136;42.236;-73.040;2023-07-30T02:24:22;17.30;99.90
31527;DHT22;18136;42.236;-73.040;2023-07-30T02:26:48;17.30;99.90
31527;DHT22;18136;42.236;-73.040;2023-07-30T02:29:14;17.30;99.90
31527;DHT22;18136;42.236;-73.040;2023-07-30T02:31:40;17.20;99.90
31527;DHT22;18136;42.236;-73.040;2023-07-30T02:34:06;17.20;99.90
31527;DHT22;18136;42.236;-73.040;2023-07-30T02:36:34;17.20;99.90
31527;DHT22;18136;42.236;-73.040;2023-07-30T02:39:02;17.10;99.90
31527;DHT22;18136;42.236;-73.040;2023-07-30T02:41:28;17.10;99.90
31527;DHT22;18136;42.236;-73.040;2023-07-30T02:43:54;17.00;99.90
31527;DHT22;18136;42.236;-73.040;2023-07-30T02:46:20;17.00;99.90
31527;DHT22;18136;42.236;-73.040;2023-07-30T02:48:46;17.00;99.90
31527;DHT22;18136;42.236;-73.040;2023-07-30T02:51:12;17.00;99.90
31527;DHT22;18136;42.236;-73.040;2023-07-30T02:53:39;16.90;99.90
31527;DHT22;18136;42.236;-73.040;2023-07-30T02:56:05;16.80;99.90
31527;DHT22;18136;42.236;-73.040;2023-07-30T02:58:31;16.70;99.90
31527;DHT22;18136;42.236;-73.040;2023-07-30T03:01:08;16.70;99.90
31527;DHT22;18136;42.236;-73.040;2023-07-30T03:03:34;16.60;99.90
31527;DHT22;18136;42.236;-73.040;2023-07-30T03:06:00;16.60;99.90
31527;DHT22;18136;42.236;-73.040;2023-07-30T03:08:26;16.60;99.90
31527;DHT22;18136;42.236;-73.040;2023-07-30T03:10:52;16.50;99.90
31527;DHT22;18136;42.236;-73.040;2023-07-30T03:13:18;16.50;99.90
31527;DHT22;18136;42.236;-73.040;2023-07-30T03:15:44;16.50;99.90
31527;DHT22;18136;42.236;-73.040;2023-07-30T03:18:13;16.40;99.90
31527;DHT22;18136;42.236;-73.040;2023-07-30T03:20:39;16.30;99.90
31527;DHT22;18136;42.236;-73.040;2023-07-30T03:23:05;16.20;99.90
31527;DHT22;18136;42.236;-73.040;2023-07-30T03:25:42;16.20;99.90
31527;DHT22;18136;42.236;-73.040;2023-07-30T03:28:09;16.20;99.90
31527;DHT22;18136;42.236;-73.040;2023-07-30T03:30:35;16.20;99.90
31527;DHT22;18136;42.236;-73.040;2023-07-30T03:33:01;16.10;99.90
31527;DHT22;18136;42.236;-73.040;2023-07-30T03:35:27;16.10;99.90
31527;DHT22;18136;42.236;-73.040;2023-07-30T03:37:53;16.00;99.90
31527;DHT22;18136;42.236;-73.040;2023-07-30T03:40:19;16.10;99.90
31527;DHT22;18136;42.236;-73.040;2023-07-30T03:42:45;16.00;99.90
31527;DHT22;18136;42.236;-73.040;2023-07-30T03:45:11;16.00;99.90
31527;DHT22;18136;42.236;-73.040;2023-07-30T03:47:37;16.00;99.90
31527;DHT22;18136;42.236;-73.040;2023-07-30T03:50:04;15.90;99.90
31527;DHT22;18136;42.236;-73.040;2023-07-30T03:52:30;15.90;99.90
31527;DHT22;18136;42.236;-73.040;2023-07-30T03:54:56;15.90;99.90
31527;DHT22;18136;42.236;-73.040;2023-07-30T03:57:22;15.80;99.90
31527;DHT22;18136;42.236;-73.040;2023-07-30T03:59:48;15.80;99.90
31527;DHT22;18136;42.236;-73.040;2023-07-30T04:02:14;15.60;99.90
31527;DHT22;18136;42.236;-73.040;2023-07-30T04:04:43;15.50;99.90
31527;DHT22;18136;42.236;-73.040;2023-07-30T04:07:10;15.50;99.90
31527;DHT22;18136;42.236;-73.040;2023-07-30T04:09:36;15.50;99.90
31527;DHT22;18136;42.236;-73.040;2023-07-30T04:12:03;15.50;99.90
31527;DHT22;18136;42.236;-73.040;2023-07-30T04:14:29;15.40;99.90
31527;DHT22;18136;42.236;-73.040;2023-07-30T04:16:55;15.40;99.90
31527;DHT22;18136;42.236;-73.040;2023-07-30T04:19:22;15.30;99.90
31527;DHT22;18136;42.236;-73.040;2023-07-30T04:21:51;15.30;99.90
31527;DHT22;18136;42.236;-73.040;2023-07-30T04:24:17;15.20;99.90
31527;DHT22;18136;42.236;-73.040;2023-07-30T04:26:43;15.20;99.90
31527;DHT22;18136;42.236;-73.040;2023-07-30T04:29:10;15.20;99.90
31527;DHT22;18136;42.236;-73.040;2023-07-30T04:31:37;15.20;99.90
31527;DHT22;18136;42.236;-73.040;2023-07-30T04:34:03;15.10;99.90
31527;DHT22;18136;42.236;-73.040;2023-07-30T04:36:29;15.20;99.90
31527;DHT22;18136;42.236;-73.040;2023-07-30T04:38:55;15.10;99.90
31527;DHT22;18136;42.236;-73.040;2023-07-30T04:41:22;15.00;99.90
31527;DHT22;18136;42.236;-73.040;2023-07-30T04:43:53;14.90;99.90
31527;DHT22;18136;42.236;-73.040;2023-07-30T04:46:19;14.90;99.90
31527;DHT22;18136;42.236;-73.040;2023-07-30T04:48:46;14.90;99.90
31527;DHT22;18136;42.236;-73.040;2023-07-30T04:51:12;14.80;99.90
31527;DHT22;18136;42.236;-73.040;2023-07-30T04:53:38;14.70;99.90
31527;DHT22;18136;42.236;-73.040;2023-07-30T04:56:05;14.60;99.90
31527;DHT22;18136;42.236;-73.040;2023-07-30T04:58:31;14.60;99.90
31527;DHT22;18136;42.236;-73.040;2023-07-30T05:00:57;14.60;99.90
31527;DHT22;18136;42.236;-73.040;2023-07-30T05:03:23;14.60;99.90
31527;DHT22;18136;42.236;-73.040;2023-07-30T05:05:49;14.50;99.90
31527;DHT22;18136;42.236;-73.040;2023-07-30T05:08:15;14.50;99.90
31527;DHT22;18136;42.236;-73.040;2023-07-30T05:10:41;14.40;99.90
31527;DHT22;18136;42.236;-73.040;2023-07-30T05:13:07;14.40;99.90
31527;DHT22;18136;42.236;-73.040;2023-07-30T05:15:34;14.30;99.90
31527;DHT22;18136;42.236;-73.040;2023-07-30T05:18:00;14.30;99.90
31527;DHT22;18136;42.236;-73.040;2023-07-30T05:20:26;14.20;99.90
31527;DHT22;18136;42.236;-73.040;2023-07-30T05:22:52;14.10;99.90
31527;DHT22;18136;42.236;-73.040;2023-07-30T05:25:20;14.00;99.90
31527;DHT22;18136;42.236;-73.040;2023-07-30T05:27:47;13.90;99.90
31527;DHT22;18136;42.236;-73.040;2023-07-30T05:30:13;13.90;99.90
31527;DHT22;18136;42.236;-73.040;2023-07-30T05:32:39;14.00;99.90
31527;DHT22;18136;42.236;-73.040;2023-07-30T05:35:05;14.00;99.90
31527;DHT22;18136;42.236;-73.040;2023-07-30T05:37:32;14.00;99.90
31527;DHT22;18136;42.236;-73.040;2023-07-30T05:39:58;13.90;99.90
31527;DHT22;18136;42.236;-73.040;2023-07-30T05:42:24;13.90;99.90
31527;DHT22;18136;42.236;-73.040;2023-07-30T05:44:51;13.90;99.90
31527;DHT22;18136;42.236;-73.040;2023-07-30T05:47:19;13.90;99.90
31527;DHT22;18136;42.236;-73.040;2023-07-30T05:49:45;13.90;99.90
31527;DHT22;18136;42.236;-73.040;2023-07-30T05:52:11;13.90;99.90
31527;DHT22;18136;42.236;-73.040;2023-07-30T05:54:37;13.80;99.90
31527;DHT22;18136;42.236;-73.040;2023-07-30T05:57:04;13.80;99.90
31527;DHT22;18136;42.236;-73.040;2023-07-30T05:59:30;13.70;99.90
31527;DHT22;18136;42.236;-73.040;2023-07-30T06:01:56;13.60;99.90
31527;DHT22;18136;42.236;-73.040;2023-07-30T06:04:24;13.60;99.90
31527;DHT22;18136;42.236;-73.040;2023-07-30T06:06:51;13.50;99.90
31527;DHT22;18136;42.236;-73.040;2023-07-30T06:09:17;13.40;99.90
31527;DHT22;18136;42.236;-73.040;2023-07-30T06:11:43;13.40;99.90
31527;DHT22;18136;42.236;-73.040;2023-07-30T06:14:09;13.40;99.90
31527;DHT22;18136;42.236;-73.040;2023-07-30T06:16:35;13.40;99.90
31527;DHT22;18136;42.236;-73.040;2023-07-30T06:19:01;13.30;99.90
31527;DHT22;18136;42.236;-73.040;2023-07-30T06:21:28;13.30;99.90
31527;DHT22;18136;42.236;-73.040;2023-07-30T06:23:54;13.20;99.90
31527;DHT22;18136;42.236;-73.040;2023-07-30T06:26:20;13.20;99.90
31527;DHT22;18136;42.236;-73.040;2023-07-30T06:28:46;13.20;99.90
31527;DHT22;18136;42.236;-73.040;2023-07-30T06:31:12;13.20;99.90
31527;DHT22;18136;42.236;-73.040;2023-07-30T06:33:38;13.20;99.90
31527;DHT22;18136;42.236;-73.040;2023-07-30T06:36:04;13.20;99.90
31527;DHT22;18136;42.236;-73.040;2023-07-30T06:38:31;13.20;99.90
31527;DHT22;18136;42.236;-73.040;2023-07-30T06:40:57;13.20;99.90
31527;DHT22;18136;42.236;-73.040;2023-07-30T06:43:23;13.10;99.90
31527;DHT22;18136;42.236;-73.040;2023-07-30T06:45:50;13.00;99.90
31527;DHT22;18136;42.236;-73.040;2023-07-30T06:48:16;12.90;99.90
31527;DHT22;18136;42.236;-73.040;2023-07-30T06:50:42;12.90;99.90
31527;DHT22;18136;42.236;-73.040;2023-07-30T06:53:09;12.80;99.90
31527;DHT22;18136;42.236;-73.040;2023-07-30T06:55:35;12.80;99.90
31527;DHT22;18136;42.236;-73.040;2023-07-30T06:58:01;12.70;99.90
31527;DHT22;18136;42.236;-73.040;2023-07-30T07:00:28;12.70;99.90
31527;DHT22;18136;42.236;-73.040;2023-07-30T07:02:54;12.60;99.90
31527;DHT22;18136;42.236;-73.040;2023-07-30T07:05:20;12.60;99.90
31527;DHT22;18136;42.236;-73.040;2023-07-30T07:07:46;12.50;99.90
31527;DHT22;18136;42.236;-73.040;2023-07-30T07:10:12;12.50;99.90
31527;DHT22;18136;42.236;-73.040;2023-07-30T07:12:39;12.50;99.90
31527;DHT22;18136;42.236;-73.040;2023-07-30T07:15:05;12.50;99.90
31527;DHT22;18136;42.236;-73.040;2023-07-30T07:17:32;12.50;99.90
31527;DHT22;18136;42.236;-73.040;2023-07-30T07:19:59;12.50;99.90
31527;DHT22;18136;42.236;-73.040;2023-07-30T07:22:27;12.40;99.90
31527;DHT22;18136;42.236;-73.040;2023-07-30T07:24:53;12.30;99.90
31527;DHT22;18136;42.236;-73.040;2023-07-30T07:27:19;12.30;99.90
31527;DHT22;18136;42.236;-73.040;2023-07-30T07:29:46;12.30;99.90
31527;DHT22;18136;42.236;-73.040;2023-07-30T07:32:12;12.20;99.90
31527;DHT22;18136;42.236;-73.040;2023-07-30T07:34:38;12.20;99.90
31527;DHT22;18136;42.236;-73.040;2023-07-30T07:37:06;12.20;99.90
31527;DHT22;18136;42.236;-73.040;2023-07-30T07:39:33;12.20;99.90
31527;DHT22;18136;42.236;-73.040;2023-07-30T07:41:59;12.10;99.90
31527;DHT22;18136;42.236;-73.040;2023-07-30T07:44:25;12.10;99.90
31527;DHT22;18136;42.236;-73.040;2023-07-30T07:46:51;12.10;99.90
31527;DHT22;18136;42.236;-73.040;2023-07-30T07:49:17;12.10;99.90
31527;DHT22;18136;42.236;-73.040;2023-07-30T07:51:43;12.10;99.90
31527;DHT22;18136;42.236;-73.040;2023-07-30T07:54:09;12.00;99.90
31527;DHT22;18136;42.236;-73.040;2023-07-30T07:56:38;11.90;99.90
31527;DHT22;18136;42.236;-73.040;2023-07-30T07:59:04;11.90;99.90
31527;DHT22;18136;42.236;-73.040;2023-07-30T08:01:30;11.90;99.90
31527;DHT22;18136;42.236;-73.040;2023-07-30T08:03:56;11.90;99.90
31527;DHT22;18136;42.236;-73.040;2023-07-30T08:06:22;11.90;99.90
31527;DHT22;18136;42.236;-73.040;2023-07-30T08:08:48;11.90;99.90
31527;DHT22;18136;42.236;-73.040;2023-07-30T08:11:15;11.90;99.90
31527;DHT22;18136;42.236;-73.040;2023-07-30T08:13:41;12.00;99.90
31527;DHT22;18136;42.236;-73.040;2023-07-30T08:16:07;11.90;99.90
31527;DHT22;18136;42.236;-73.040;2023-07-30T08:18:33;11.90;99.90
31527;DHT22;18136;42.236;-73.040;2023-07-30T08:21:00;11.80;99.90
31527;DHT22;18136;42.236;-73.040;2023-07-30T08:23:26;11.70;99.90
31527;DHT22;18136;42.236;-73.040;2023-07-30T08:25:53;11.80;99.90
31527;DHT22;18136;42.236;-73.040;2023-07-30T08:28:19;11.70;99.90
31527;DHT22;18136;42.236;-73.040;2023-07-30T08:30:45;11.70;99.90
31527;DHT22;18136;42.236;-73.040;2023-07-30T08:33:12;11.70;99.90
31527;DHT22;18136;42.236;-73.040;2023-07-30T08:35:38;11.60;99.90
31527;DHT22;18136;42.236;-73.040;2023-07-30T08:38:04;11.70;99.90
31527;DHT22;18136;42.236;-73.040;2023-07-30T08:40:30;11.60;99.90
31527;DHT22;18136;42.236;-73.040;2023-07-30T08:42:58;11.60;99.90
31527;DHT22;18136;42.236;-73.040;2023-07-30T08:45:25;11.70;99.90
31527;DHT22;18136;42.236;-73.040;2023-07-30T08:47:51;11.70;99.90
31527;DHT22;18136;42.236;-73.040;2023-07-30T08:50:18;11.70;99.90
31527;DHT22;18136;42.236;-73.040;2023-07-30T08:52:45;11.70;99.90
31527;DHT22;18136;42.236;-73.040;2023-07-30T08:55:13;11.70;99.90
31527;DHT22;18136;42.236;-73.040;2023-07-30T08:57:41;11.60;99.90
31527;DHT22;18136;42.236;-73.040;2023-07-30T09:00:09;11.60;99.90
31527;DHT22;18136;42.236;-73.040;2023-07-30T09:05:03;11.70;99.90
31527;DHT22;18136;42.236;-73.040;2023-07-30T09:07:30;11.60;99.90
31527;DHT22;18136;42.236;-73.040;2023-07-30T09:09:56;11.60;99.90
31527;DHT22;18136;42.236;-73.040;2023-07-30T09:12:32;11.60;99.90
31527;DHT22;18136;42.236;-73.040;2023-07-30T09:14:59;11.60;99.90
31527;DHT22;18136;42.236;-73.040;2023-07-30T09:17:26;11.60;99.90
31527;DHT22;18136;42.236;-73.040;2023-07-30T09:19:52;11.60;99.90
31527;DHT22;18136;42.236;-73.040;2023-07-30T09:22:29;11.60;99.90
31527;DHT22;18136;42.236;-73.040;2023-07-30T09:24:56;11.60;99.90
31527;DHT22;18136;42.236;-73.040;2023-07-30T09:27:26;11.70;99.90
31527;DHT22;18136;42.236;-73.040;2023-07-30T09:29:54;11.60;99.90
31527;DHT22;18136;42.236;-73.040;2023-07-30T09:32:20;11.60;99.90
31527;DHT22;18136;42.236;-73.040;2023-07-30T09:34:46;11.60;99.90
31527;DHT22;18136;42.236;-73.040;2023-07-30T09:37:13;11.60;99.90
31527;DHT22;18136;42.236;-73.040;2023-07-30T09:39:40;11.50;99.90
31527;DHT22;18136;42.236;-73.040;2023-07-30T09:42:08;11.50;99.90
31527;DHT22;18136;42.236;-73.040;2023-07-30T09:44:34;11.50;99.90
31527;DHT22;18136;42.236;-73.040;2023-07-30T09:47:01;11.50;99.90
31527;DHT22;18136;42.236;-73.040;2023-07-30T09:49:32;11.40;99.90
31527;DHT22;18136;42.236;-73.040;2023-07-30T09:51:58;11.40;99.90
31527;DHT22;18136;42.236;-73.040;2023-07-30T09:54:24;11.50;99.90
31527;DHT22;18136;42.236;-73.040;2023-07-30T09:56:50;11.40;99.90
31527;DHT22;18136;42.236;-73.040;2023-07-30T09:59:17;11.40;99.90
31527;DHT22;18136;42.236;-73.040;2023-07-30T10:01:47;11.40;99.90
31527;DHT22;18136;42.236;-73.040;2023-07-30T10:04:19;11.40;99.90
31527;DHT22;18136;42.236;-73.040;2023-07-30T10:06:55;11.40;99.90
31527;DHT22;18136;42.236;-73.040;2023-07-30T10:09:24;11.40;99.90
31527;DHT22;18136;42.236;-73.040;2023-07-30T10:11:52;11.40;99.90
31527;DHT22;18136;42.236;-73.040;2023-07-30T10:14:22;11.40;99.90
31527;DHT22;18136;42.236;-73.040;2023-07-30T10:17:00;11.40;99.90
31527;DHT22;18136;42.236;-73.040;2023-07-30T10:19:28;11.40;99.90
31527;DHT22;18136;42.236;-73.040;2023-07-30T10:24:42;11.40;99.90
31527;DHT22;18136;42.236;-73.040;2023-07-30T10:27:24;11.40;99.90
31527;DHT22;18136;42.236;-73.040;2023-07-30T10:30:13;11.40;99.90
31527;DHT22;18136;42.236;-73.040;2023-07-30T10:33:02;11.30;99.90
31527;DHT22;18136;42.236;-73.040;2023-07-30T10:35:46;11.30;99.90
31527;DHT22;18136;42.236;-73.040;2023-07-30T10:38:21;11.30;99.90
31527;DHT22;18136;42.236;-73.040;2023-07-30T10:41:01;11.30;99.90
31527;DHT22;18136;42.236;-73.040;2023-07-30T10:43:29;11.40;99.90
31527;DHT22;18136;42.236;-73.040;2023-07-30T10:45:55;11.40;99.90
31527;DHT22;18136;42.236;-73.040;2023-07-30T10:48:33;11.40;99.90
31527;DHT22;18136;42.236;-73.040;2023-07-30T10:51:01;11.40;99.90
31527;DHT22;18136;42.236;-73.040;2023-07-30T10:53:28;11.50;99.90
31527;DHT22;18136;42.236;-73.040;2023-07-30T10:55:54;11.50;99.90
31527;DHT22;18136;42.236;-73.040;2023-07-30T10:58:24;11.50;99.90
31527;DHT22;18136;42.236;-73.040;2023-07-30T11:00:51;11.50;99.90
31527;DHT22;18136;42.236;-73.040;2023-07-30T11:03:17;11.50;99.90
31527;DHT22;18136;42.236;-73.040;2023-07-30T11:05:47;11.50;99.90
31527;DHT22;18136;42.236;-73.040;2023-07-30T11:08:13;11.60;99.90
31527;DHT22;18136;42.236;-73.040;2023-07-30T11:10:46;11.60;99.90
31527;DHT22;18136;42.236;-73.040;2023-07-30T11:13:14;11.70;99.90
31527;DHT22;18136;42.236;-73.040;2023-07-30T11:15:48;11.70;99.90
31527;DHT22;18136;42.236;-73.040;2023-07-30T11:18:14;11.70;99.90
31527;DHT22;18136;42.236;-73.040;2023-07-30T11:20:42;11.70;99.90
31527;DHT22;18136;42.236;-73.040;2023-07-30T11:23:22;11.80;99.90
31527;DHT22;18136;42.236;-73.040;2023-07-30T11:25:49;11.80;99.90
31527;DHT22;18136;42.236;-73.040;2023-07-30T11:28:28;11.80;99.90
31527;DHT22;18136;42.236;-73.040;2023-07-30T11:30:59;11.70;99.90
31527;DHT22;18136;42.236;-73.040;2023-07-30T11:33:27;11.80;99.90
31527;DHT22;18136;42.236;-73.040;2023-07-30T11:35:57;11.80;99.90
31527;DHT22;18136;42.236;-73.040;2023-07-30T11:38:27;11.90;99.90
31527;DHT22;18136;42.236;-73.040;2023-07-30T11:40:54;11.80;99.90
31527;DHT22;18136;42.236;-73.040;2023-07-30T11:43:21;11.90;99.90
31527;DHT22;18136;42.236;-73.040;2023-07-30T11:45:47;11.90;99.90
31527;DHT22;18136;42.236;-73.040;2023-07-30T11:48:14;11.90;99.90
31527;DHT22;18136;42.236;-73.040;2023-07-30T11:50:50;11.90;99.90
31527;DHT22;18136;42.236;-73.040;2023-07-30T11:53:18;12.00;99.90
31527;DHT22;18136;42.236;-73.040;2023-07-30T11:55:44;12.00;99.90
31527;DHT22;18136;42.236;-73.040;2023-07-30T11:58:12;12.00;99.90
31527;DHT22;18136;42.236;-73.040;2023-07-30T12:00:40;12.00;99.90
31527;DHT22;18136;42.236;-73.040;2023-07-30T12:03:11;12.10;99.90
31527;DHT22;18136;42.236;-73.040;2023-07-30T12:05:39;12.10;99.90
31527;DHT22;18136;42.236;-73.040;2023-07-30T12:08:12;12.10;99.90
31527;DHT22;18136;42.236;-73.040;2023-07-30T12:10:47;12.20;99.90
31527;DHT22;18136;42.236;-73.040;2023-07-30T12:13:19;12.20;99.90
31527;DHT22;18136;42.236;-73.040;2023-07-30T12:15:56;12.20;99.90
31527;DHT22;18136;42.236;-73.040;2023-07-30T12:18:23;12.30;99.90
31527;DHT22;18136;42.236;-73.040;2023-07-30T12:20:50;12.30;99.90
31527;DHT22;18136;42.236;-73.040;2023-07-30T12:23:17;12.40;99.90
31527;DHT22;18136;42.236;-73.040;2023-07-30T12:25:44;12.40;99.90
31527;DHT22;18136;42.236;-73.040;2023-07-30T12:28:10;12.50;99.90
31527;DHT22;18136;42.236;-73.040;2023-07-30T12:30:36;12.50;99.90
31527;DHT22;18136;42.236;-73.040;2023-07-30T12:33:05;12.60;99.90
31527;DHT22;18136;42.236;-73.040;2023-07-30T12:35:34;12.60;99.90
31527;DHT22;18136;42.236;-73.040;2023-07-30T12:38:01;12.60;99.90
31527;DHT22;18136;42.236;-73.040;2023-07-30T12:40:27;12.70;99.90
31527;DHT22;18136;42.236;-73.040;2023-07-30T12:42:55;12.70;99.90
31527;DHT22;18136;42.236;-73.040;2023-07-30T12:45:21;12.90;99.90
31527;DHT22;18136;42.236;-73.040;2023-07-30T12:47:47;13.00;99.90
31527;DHT22;18136;42.236;-73.040;2023-07-30T12:50:13;13.10;99.90
31527;DHT22;18136;42.236;-73.040;2023-07-30T12:52:40;13.10;99.90
31527;DHT22;18136;42.236;-73.040;2023-07-30T12:55:06;13.10;99.90
31527;DHT22;18136;42.236;-73.040;2023-07-30T12:57:32;13.10;99.90
31527;DHT22;18136;42.236;-73.040;2023-07-30T12:59:59;13.10;99.90
31527;DHT22;18136;42.236;-73.040;2023-07-30T13:02:25;13.10;99.90
31527;DHT22;18136;42.236;-73.040;2023-07-30T13:04:51;13.20;99.90
31527;DHT22;18136;42.236;-73.040;2023-07-30T13:07:17;13.40;99.90
31527;DHT22;18136;42.236;-73.040;2023-07-30T13:09:45;13.60;99.90
31527;DHT22;18136;42.236;-73.040;2023-07-30T13:12:11;13.50;99.90
31527;DHT22;18136;42.236;-73.040;2023-07-30T13:14:37;13.50;99.90
31527;DHT22;18136;42.236;-73.040;2023-07-30T13:17:04;13.50;99.90
31527;DHT22;18136;42.236;-73.040;2023-07-30T13:19:30;13.50;99.90
31527;DHT22;18136;42.236;-73.040;2023-07-30T13:21:57;13.60;99.90
31527;DHT22;18136;42.236;-73.040;2023-07-30T13:24:24;13.80;99.90
31527;DHT22;18136;42.236;-73.040;2023-07-30T13:26:50;13.80;99.90
31527;DHT22;18136;42.236;-73.040;2023-07-30T13:29:16;13.80;99.90
31527;DHT22;18136;42.236;-73.040;2023-07-30T13:31:42;13.80;99.90
31527;DHT22;18136;42.236;-73.040;2023-07-30T13:34:08;13.80;99.90
31527;DHT22;18136;42.236;-73.040;2023-07-30T13:36:34;13.80;99.90
31527;DHT22;18136;42.236;-73.040;2023-07-30T13:39:00;13.80;99.90
31527;DHT22;18136;42.236;-73.040;2023-07-30T13:41:26;13.80;99.90
31527;DHT22;18136;42.236;-73.040;2023-07-30T13:43:52;13.90;99.90
31527;DHT22;18136;42.236;-73.040;2023-07-30T13:46:18;14.10;99.90
31527;DHT22;18136;42.236;-73.040;2023-07-30T13:48:44;14.40;99.90
31527;DHT22;18136;42.236;-73.040;2023-07-30T13:51:10;14.60;99.90
31527;DHT22;18136;42.236;-73.040;2023-07-30T13:53:36;14.80;99.90
31527;DHT22;18136;42.236;-73.040;2023-07-30T13:56:06;14.90;99.90
31527;DHT22;18136;42.236;-73.040;2023-07-30T13:58:33;15.10;99.90
31527;DHT22;18136;42.236;-73.040;2023-07-30T14:00:59;15.30;99.90
31527;DHT22;18136;42.236;-73.040;2023-07-30T14:03:25;15.50;99.90
31527;DHT22;18136;42.236;-73.040;2023-07-30T14:05:51;15.60;99.90
31527;DHT22;18136;42.236;-73.040;2023-07-30T14:08:17;15.60;99.90
31527;DHT22;18136;42.236;-73.040;2023-07-30T14:10:44;15.40;99.90
31527;DHT22;18136;42.236;-73.040;2023-07-30T14:13:10;15.30;99.90
31527;DHT22;18136;42.236;-73.040;2023-07-30T14:15:36;15.30;99.90
31527;DHT22;18136;42.236;-73.040;2023-07-30T14:18:02;15.50;99.90
31527;DHT22;18136;42.236;-73.040;2023-07-30T14:20:28;15.60;99.90
31527;DHT22;18136;42.236;-73.040;2023-07-30T14:22:54;15.70;99.90
31527;DHT22;18136;42.236;-73.040;2023-07-30T14:25:20;15.80;99.90
31527;DHT22;18136;42.236;-73.040;2023-07-30T14:27:46;15.70;99.90
31527;DHT22;18136;42.236;-73.040;2023-07-30T14:30:12;15.50;99.90
31527;DHT22;18136;42.236;-73.040;2023-07-30T14:32:38;15.50;99.90
31527;DHT22;18136;42.236;-73.040;2023-07-30T14:35:05;15.70;99.90
31527;DHT22;18136;42.236;-73.040;2023-07-30T14:37:31;15.80;99.90
31527;DHT22;18136;42.236;-73.040;2023-07-30T14:39:57;15.90;99.90
31527;DHT22;18136;42.236;-73.040;2023-07-30T14:42:23;16.10;99.90
31527;DHT22;18136;42.236;-73.040;2023-07-30T14:44:49;16.40;99.90
31527;DHT22;18136;42.236;-73.040;2023-07-30T14:47:15;16.50;99.90
31527;DHT22;18136;42.236;-73.040;2023-07-30T14:49:41;16.70;99.90
31527;DHT22;18136;42.236;-73.040;2023-07-30T14:52:08;16.60;99.90
31527;DHT22;18136;42.236;-73.040;2023-07-30T14:54:34;16.50;99.90
31527;DHT22;18136;42.236;-73.040;2023-07-30T14:57:01;16.40;99.90
31527;DHT22;18136;42.236;-73.040;2023-07-30T14:59:27;16.50;99.90
31527;DHT22;18136;42.236;-73.040;2023-07-30T15:01:53;16.50;99.90
31527;DHT22;18136;42.236;-73.040;2023-07-30T15:04:19;16.60;99.90
31527;DHT22;18136;42.236;-73.040;2023-07-30T15:06:45;16.70;99.90
31527;DHT22;18136;42.236;-73.040;2023-07-30T15:09:11;17.00;99.90